Time;durP1;ratioP1;P1;durP2;ratioP2;P2;SDS_P1;SDS_P2;PMS_P1;PMS_P2;Temp;Humidity;BMP_temperature;BMP_pressure;BME280_temperature;BME280_humidity;BME280_pressure;Samples;Min_cycle;Max_cycle;Signal;HPM_P1;HPM_P2
2021/12/26 00:01:53;;;;;;;28.25;17.83;;;-5.70;99.90;;;-6.53;78.92;101049.56;5034797;28;20205;-68
2021/12/26 00:04:21;;;;;;;22.90;16.92;;;-5.90;99.90;;;-6.82;79.17;101041.53;5035457;28;20646;-68
2021/12/26 00:06:49;;;;;;;31.50;20.92;;;-6.10;99.90;;;-6.80;80.41;101034.41;5035011;28;20193;-67
2021/12/26 00:09:18;;;;;;;27.23;20.30;;;-6.20;99.90;;;-6.82;80.31;101036.28;5035385;28;20193;-67
2021/12/26 00:11:48;;;;;;;27.45;21.98;;;-6.30;99.90;;;-6.86;80.54;101031.28;5035072;28;20231;-68
2021/12/26 00:14:16;;;;;;;40.97;25.42;;;-6.40;99.90;;;-6.88;80.02;101036.66;5034779;28;20251;-67
2021/12/26 00:16:47;;;;;;;38.58;27.58;;;-6.40;99.90;;;-6.91;79.96;101030.69;5035415;28;20607;-68
2021/12/26 00:19:16;;;;;;;40.00;28.35;;;-6.50;99.90;;;-7.04;79.68;101038.44;5035585;28;20248;-67
2021/12/26 00:21:45;;;;;;;45.65;31.17;;;-6.60;99.90;;;-7.08;79.31;101029.88;5032420;28;20222;-68
2021/12/26 00:24:13;;;;;;;49.00;31.05;;;-6.60;99.90;;;-7.17;79.67;101029.56;5033629;28;20206;-66
2021/12/26 00:26:43;;;;;;;44.45;29.95;;;-6.70;99.90;;;-7.37;79.69;101032.44;5033990;28;20217;-68
2021/12/26 00:29:13;;;;;;;41.72;31.15;;;-6.80;99.90;;;-7.32;79.96;101025.16;5033335;28;20633;-67
2021/12/26 00:31:42;;;;;;;41.00;28.73;;;-6.80;99.90;;;-7.14;79.98;101026.75;5032999;28;20240;-67
2021/12/26 00:34:10;;;;;;;49.55;30.27;;;-6.70;99.90;;;-7.22;80.06;101026.34;5034894;28;20256;-67
2021/12/26 00:36:39;;;;;;;47.47;29.90;;;-6.70;99.90;;;-7.15;81.43;101027.66;5033586;28;20354;-68
2021/12/26 00:39:09;;;;;;;44.08;29.48;;;-6.70;99.90;;;-7.11;80.83;101035.28;5034970;28;20637;-70
2021/12/26 00:41:39;;;;;;;42.13;30.58;;;-6.60;99.90;;;-7.14;80.38;101037.25;5035209;28;20761;-66
2021/12/26 00:44:09;;;;;;;42.30;29.95;;;-6.70;99.90;;;-7.01;80.22;101035.63;5033168;28;20193;-68
2021/12/26 00:46:40;;;;;;;44.35;28.88;;;-6.60;99.90;;;-7.15;79.71;101043.44;5033735;28;20189;-68
2021/12/26 00:49:09;;;;;;;48.35;32.03;;;-6.70;99.90;;;-7.23;80.54;101035.16;5034088;28;20231;-69
2021/12/26 00:51:39;;;;;;;43.83;27.35;;;-6.70;99.90;;;-7.08;80.09;101032.50;5032489;28;20214;-67
2021/12/26 00:54:07;;;;;;;41.42;29.10;;;-6.60;99.90;;;-7.07;79.85;101038.63;5034148;28;20249;-67
2021/12/26 00:56:35;;;;;;;45.70;30.00;;;-6.60;99.90;;;-7.21;80.63;101038.56;5032482;28;20190;-66
2021/12/26 00:59:04;;;;;;;39.85;28.15;;;-6.70;99.90;;;-7.12;80.27;101040.66;5034281;28;20208;-68
2021/12/26 01:01:35;;;;;;;48.70;28.38;;;-6.70;99.90;;;-7.06;79.73;101042.94;5049277;28;20724;-68
2021/12/26 01:04:06;;;;;;;46.25;29.15;;;-6.60;99.90;;;-7.11;79.42;101045.81;5034536;28;20182;-68
2021/12/26 01:06:35;;;;;;;39.88;30.23;;;-6.60;99.90;;;-7.31;80.01;101043.44;5032369;28;20612;-69
2021/12/26 01:09:11;;;;;;;43.83;27.30;;;-6.70;99.90;;;-7.06;79.81;101048.19;5033517;28;20182;-67
2021/12/26 01:11:46;;;;;;;39.13;27.23;;;-6.70;99.90;;;-7.22;80.41;101042.13;5032118;28;20307;-67
2021/12/26 01:14:24;;;;;;;39.55;27.50;;;-6.70;99.90;;;-7.29;81.14;101043.38;5033105;28;20221;-67
2021/12/26 01:17:04;;;;;;;36.28;25.02;;;-6.80;99.90;;;-7.33;81.03;101040.06;5033403;28;20268;-67
2021/12/26 01:19:43;;;;;;;43.80;31.80;;;-6.80;99.90;;;-7.19;80.34;101049.81;5050709;28;20218;-66
2021/12/26 01:22:12;;;;;;;42.30;30.45;;;-6.80;99.90;;;-7.37;80.19;101049.06;5032546;28;20217;-67
2021/12/26 01:24:43;;;;;;;46.60;33.65;;;-6.90;99.90;;;-7.40;80.85;101053.63;5032926;28;20678;-68
2021/12/26 01:27:12;;;;;;;50.05;32.28;;;-6.90;99.90;;;-7.44;80.29;101057.34;5035188;28;20192;-68
2021/12/26 01:29:41;;;;;;;44.75;36.03;;;-6.90;99.90;;;-7.50;80.56;101054.13;5035818;28;20197;-68
2021/12/26 01:32:10;;;;;;;48.55;33.90;;;-7.00;99.90;;;-7.59;79.83;101057.25;5035395;28;20560;-67
2021/12/26 01:35:01;;;;;;;49.53;35.47;;;-7.10;99.90;;;-7.61;79.87;101053.03;5038446;28;20615;-67
2021/12/26 01:38:02;;;;;;;50.90;33.15;;;-7.10;99.90;;;-7.59;80.39;101052.00;5044397;28;20243;-67
2021/12/26 01:40:53;;;;;;;56.53;34.63;;;-7.10;99.90;;;-7.50;80.18;101051.50;5039688;28;20918;-67
2021/12/26 01:43:41;;;;;;;55.60;34.75;;;-7.00;99.90;;;-7.54;79.93;101051.75;5037136;28;20206;-68
2021/12/26 01:46:33;;;;;;;55.45;35.38;;;-7.10;99.90;;;-7.65;79.52;101054.97;5035415;28;20259;-67
2021/12/26 01:49:05;;;;;;;61.20;37.35;;;-7.20;99.90;;;-7.72;79.81;101050.97;5049230;28;20197;-67
2021/12/26 01:51:36;;;;;;;59.58;35.15;;;-7.20;99.90;;;-7.56;79.68;101054.50;5035472;28;20217;-71
2021/12/26 01:54:12;;;;;;;47.38;34.15;;;-7.10;99.90;;;-7.41;79.33;101049.31;5036639;28;20193;-66
2021/12/26 01:56:43;;;;;;;53.08;37.00;;;-7.00;99.90;;;-7.56;79.36;101054.50;5039544;28;20192;-67
2021/12/26 01:59:14;;;;;;;53.03;33.63;;;-7.10;99.90;;;-7.63;80.06;101055.75;5036103;28;20218;-68
2021/12/26 02:01:50;;;;;;;59.10;36.30;;;-7.10;99.90;;;-7.37;79.12;101043.81;5037123;28;20478;-67
2021/12/26 02:04:20;;;;;;;53.50;35.83;;;-7.00;99.90;;;-7.16;78.47;101058.38;5038145;28;20280;-68
2021/12/26 02:06:51;;;;;;;50.03;35.35;;;-6.90;99.90;;;-7.30;78.60;101045.16;5048232;28;20279;-67
2021/12/26 02:09:19;;;;;;;60.47;35.60;;;-6.90;99.90;;;-7.37;79.35;101049.06;5031719;28;20199;-68
2021/12/26 02:11:51;;;;;;;52.00;34.78;;;-6.90;99.90;;;-7.18;79.46;101048.88;5031646;28;20581;-67
2021/12/26 02:14:21;;;;;;;57.65;38.50;;;-6.80;99.90;;;-7.53;79.61;101056.09;5032407;28;20243;-68
2021/12/26 02:17:09;;;;;;;51.53;37.60;;;-7.00;99.90;;;-7.22;79.77;101057.91;5034109;28;20216;-65
2021/12/26 02:19:43;;;;;;;63.40;38.30;;;-6.90;99.90;;;-7.29;79.47;101051.25;5032246;28;20217;-69
2021/12/26 02:22:23;;;;;;;50.25;35.53;;;-6.90;99.90;;;-7.26;79.86;101051.94;5031796;28;20804;-67
2021/12/26 02:25:14;;;;;;;56.20;35.95;;;-6.80;99.90;;;-7.38;79.22;101051.78;5030803;28;20190;-67
2021/12/26 02:27:42;;;;;;;53.65;35.53;;;-6.90;99.90;;;-7.23;79.40;101051.78;5030795;28;20225;-68
2021/12/26 02:30:19;;;;;;;53.33;34.20;;;-6.90;99.90;;;-7.34;78.99;101048.88;5030988;28;20190;-68
2021/12/26 02:32:58;;;;;;;51.50;36.17;;;-6.90;99.90;;;-7.17;78.89;101056.72;5011556;28;20204;-67
2021/12/26 02:35:28;;;;;;;51.00;35.05;;;-6.80;99.90;;;-7.31;79.43;101051.34;5011386;28;20194;-67
2021/12/26 02:37:57;;;;;;;59.35;36.53;;;-6.80;99.90;;;-7.36;78.46;101049.94;5028277;28;20286;-67
2021/12/26 02:40:26;;;;;;;51.72;34.38;;;-6.90;99.90;;;-7.39;78.51;101047.44;5011300;28;20228;-67
2021/12/26 02:42:55;;;;;;;46.15;33.25;;;-6.90;99.90;;;-7.30;79.13;101037.25;5028352;28;20194;-67
2021/12/26 02:45:26;;;;;;;62.30;37.08;;;-6.90;99.90;;;-7.09;78.90;101040.47;5014756;28;20186;-68
2021/12/26 02:47:55;;;;;;;46.63;35.28;;;-6.80;99.90;;;-7.43;78.75;101036.25;5031920;28;20717;-67
2021/12/26 02:50:31;;;;;;;50.20;34.28;;;-6.90;99.90;;;-7.40;79.48;101033.44;5017335;28;20202;-68
2021/12/26 02:53:03;;;;;;;58.22;36.58;;;-7.00;99.90;;;-7.35;79.77;101039.28;5016428;28;20654;-68
2021/12/26 02:55:32;;;;;;;58.00;37.55;;;-7.00;99.90;;;-7.18;78.49;101043.63;5031787;28;20229;-68
2021/12/26 02:58:06;;;;;;;67.40;39.75;;;-6.80;99.90;;;-7.16;78.91;101039.13;5017807;28;20200;-68
2021/12/26 03:00:42;;;;;;;56.40;38.97;;;-6.80;99.90;;;-7.30;78.86;101037.25;5035360;28;20214;-68
2021/12/26 03:03:11;;;;;;;55.40;37.50;;;-6.80;99.90;;;-7.59;79.25;101038.88;5016730;28;20202;-66
2021/12/26 03:05:46;;;;;;;52.40;37.67;;;-7.00;99.90;;;-7.74;78.92;101038.84;5015388;28;20205;-68
2021/12/26 03:08:17;;;;;;;56.70;34.45;;;-7.20;99.90;;;-7.63;78.71;101042.59;5016202;28;20190;-70
2021/12/26 03:10:46;;;;;;;59.67;38.75;;;-7.20;99.90;;;-7.77;78.91;101042.50;5018860;28;20210;-67
2021/12/26 03:13:16;;;;;;;64.35;39.88;;;-7.20;99.90;;;-7.83;78.76;101040.19;5018891;28;20726;-66
2021/12/26 03:15:44;;;;;;;58.75;40.47;;;-7.30;99.90;;;-8.02;78.88;101044.72;5017112;28;20201;-67
2021/12/26 03:18:13;;;;;;;66.75;38.40;;;-7.40;99.90;;;-7.83;78.59;101039.34;5019030;28;20225;-69
2021/12/26 03:20:46;;;;;;;58.63;38.17;;;-7.40;99.90;;;-7.92;78.87;101032.81;5018212;28;20206;-66
2021/12/26 03:23:19;;;;;;;50.88;36.65;;;-7.40;99.90;;;-7.93;78.69;101028.47;5026479;28;20198;-67
2021/12/26 03:25:49;;;;;;;50.20;34.08;;;-7.40;99.90;;;-8.02;79.52;101034.22;5042420;28;20201;-65
2021/12/26 03:28:18;;;;;;;55.15;32.50;;;-7.50;99.90;;;-8.03;79.03;101024.63;5027197;28;20204;-68
2021/12/26 03:30:47;;;;;;;52.33;37.08;;;-7.50;99.90;;;-7.96;79.63;101036.53;5037031;28;20781;-69
2021/12/26 03:33:17;;;;;;;57.17;36.13;;;-7.50;99.90;;;-7.94;78.97;101037.31;5016619;28;20216;-67
2021/12/26 03:35:47;;;;;;;67.88;37.95;;;-7.50;99.90;;;-8.01;79.83;101033.28;5016041;28;20198;-67
2021/12/26 03:38:19;;;;;;;63.72;37.38;;;-7.50;99.90;;;-8.08;79.38;101039.78;5015121;28;20689;-66
2021/12/26 03:40:53;;;;;;;51.30;35.88;;;-7.60;99.90;;;-7.89;79.04;101037.06;5016199;28;20260;-67
2021/12/26 03:43:23;;;;;;;47.38;36.28;;;-7.50;99.90;;;-8.00;78.40;101037.63;5030622;28;20605;-66
2021/12/26 03:45:56;;;;;;;54.33;37.08;;;-7.50;99.90;;;-8.07;78.40;101029.22;5030772;28;20202;-66
2021/12/26 03:48:27;;;;;;;58.63;37.83;;;-7.60;99.90;;;-8.12;78.64;101027.75;5014733;28;20204;-67
2021/12/26 03:50:59;;;;;;;54.72;39.15;;;-7.60;99.90;;;-8.16;78.04;101029.69;5030514;28;20302;-67
2021/12/26 03:53:28;;;;;;;52.75;37.67;;;-7.70;99.90;;;-8.18;78.73;101033.34;5013712;28;20197;-68
2021/12/26 03:55:58;;;;;;;59.28;38.80;;;-7.70;99.90;;;-8.37;78.37;101036.94;5029902;28;20210;-67
2021/12/26 03:58:27;;;;;;;56.47;34.50;;;-7.80;99.90;;;-8.40;79.07;101033.63;5014272;28;20202;-69
2021/12/26 04:00:56;;;;;;;63.38;39.88;;;-7.80;99.90;;;-8.33;78.29;101039.41;5013683;28;20312;-68
2021/12/26 04:03:25;;;;;;;54.72;36.17;;;-7.90;99.90;;;-8.34;78.62;101040.34;5013305;28;20198;-67
2021/12/26 04:05:59;;;;;;;50.08;34.83;;;-7.80;99.90;;;-8.34;79.15;101035.09;5012932;28;20198;-67
2021/12/26 04:08:31;;;;;;;55.15;35.75;;;-7.90;99.90;;;-8.47;78.61;101032.25;5013628;28;20693;-66
2021/12/26 04:14:10;;;;;;;53.28;35.50;;;-8.00;99.90;;;-8.57;78.88;101036.28;4945791;23;20260;-62
2021/12/26 04:16:43;;;;;;;61.88;39.60;;;-8.00;99.90;;;-8.34;78.95;101035.94;4918182;29;20224;-67
2021/12/26 04:19:11;;;;;;;58.78;37.30;;;-7.90;99.90;;;-8.19;78.79;101036.91;4916934;29;20190;-63
2021/12/26 04:21:41;;;;;;;58.70;37.03;;;-7.80;99.90;;;-8.15;78.00;101030.56;4918294;29;20230;-63
2021/12/26 04:24:10;;;;;;;51.78;33.78;;;-7.80;99.90;;;-8.11;77.93;101026.81;4916983;29;20193;-62
2021/12/26 04:26:39;;;;;;;56.70;34.47;;;-7.70;99.90;;;-8.10;78.48;101031.16;4916756;29;20205;-63
2021/12/26 04:29:09;;;;;;;57.47;38.80;;;-7.60;99.90;;;-8.04;78.64;101030.84;4916907;29;20189;-64
2021/12/26 04:31:37;;;;;;;53.10;32.47;;;-7.60;99.90;;;-7.94;77.58;101040.75;4916978;29;20229;-64
2021/12/26 04:34:06;;;;;;;48.35;29.85;;;-7.50;99.90;;;-8.08;77.90;101039.78;4917011;29;20196;-62
2021/12/26 04:36:34;;;;;;;55.05;34.33;;;-7.60;99.90;;;-7.86;77.68;101029.84;4916839;29;20189;-62
2021/12/26 04:39:05;;;;;;;48.00;33.30;;;-7.50;99.90;;;-7.88;77.59;101023.81;4917008;29;20744;-61
2021/12/26 04:41:33;;;;;;;44.58;30.70;;;-7.50;99.90;;;-7.72;77.33;101022.06;4917854;29;20217;-63
2021/12/26 04:44:26;;;;;;;42.92;30.77;;;-7.40;99.90;;;-7.95;78.17;101019.84;4917796;29;20276;-63
2021/12/26 04:47:13;;;;;;;45.55;31.85;;;-7.40;99.90;;;-7.96;78.55;101026.03;4917914;29;20249;-63
2021/12/26 04:49:41;;;;;;;52.95;30.25;;;-7.40;99.90;;;-7.89;78.58;101019.53;4916502;29;20200;-64
2021/12/26 04:52:10;;;;;;;38.80;21.13;;;-7.40;99.90;;;-7.95;79.33;101022.47;4916282;29;20224;-63
2021/12/26 04:54:39;;;;;;;31.52;20.60;;;-7.40;99.90;;;-7.82;78.69;101023.50;4916372;29;20205;-62
2021/12/26 04:57:08;;;;;;;31.08;20.30;;;-7.30;99.90;;;-7.59;79.55;101017.84;4916371;29;20194;-64
2021/12/26 04:59:36;;;;;;;31.13;17.52;;;-7.20;99.90;;;-7.66;79.98;101015.66;4916432;29;20196;-63
2021/12/26 05:02:08;;;;;;;28.88;19.52;;;-7.10;99.90;;;-7.63;79.42;101005.81;4916099;29;20221;-62
2021/12/26 05:04:37;;;;;;;33.13;17.85;;;-7.10;99.90;;;-7.56;80.42;101016.84;4916284;29;20190;-64
2021/12/26 05:07:07;;;;;;;23.60;17.48;;;-7.10;99.90;;;-7.43;80.31;101017.00;4917416;29;20217;-63
2021/12/26 05:09:36;;;;;;;28.63;15.68;;;-6.90;99.90;;;-7.53;80.61;101016.66;4917826;29;20181;-63
2021/12/26 05:12:07;;;;;;;18.85;14.63;;;-6.90;99.90;;;-7.60;80.57;101015.31;4917945;29;20216;-63
2021/12/26 05:14:36;;;;;;;23.60;14.98;;;-7.00;99.90;;;-7.70;80.29;101017.59;4918737;29;20534;-63
2021/12/26 05:17:04;;;;;;;25.27;15.55;;;-7.00;99.90;;;-7.72;80.67;101019.44;4918002;29;20244;-63
2021/12/26 05:19:33;;;;;;;30.52;19.92;;;-7.10;99.90;;;-7.48;80.67;101018.13;4916437;29;20190;-63
2021/12/26 05:22:03;;;;;;;27.25;18.70;;;-6.90;99.90;;;-7.36;80.43;101013.97;4915733;29;20283;-63
2021/12/26 05:24:32;;;;;;;35.10;17.38;;;-6.80;99.90;;;-7.29;80.47;101014.44;4915629;29;20189;-63
2021/12/26 05:27:01;;;;;;;24.20;15.80;;;-6.80;99.90;;;-7.34;80.37;101019.13;4915805;29;20201;-64
2021/12/26 05:29:32;;;;;;;21.02;15.30;;;-6.80;99.90;;;-7.17;80.36;101011.16;4916082;29;20692;-63
2021/12/26 05:32:00;;;;;;;23.95;15.02;;;-6.70;99.90;;;-7.02;79.25;101028.69;4917651;29;20213;-63
2021/12/26 05:34:29;;;;;;;20.88;14.75;;;-6.60;99.90;;;-7.07;79.37;101021.03;4916175;29;20190;-62
2021/12/26 05:36:58;;;;;;;20.92;12.75;;;-6.60;99.90;;;-7.03;78.98;101019.94;4916263;29;20193;-61
2021/12/26 05:39:26;;;;;;;23.83;15.45;;;-6.60;99.90;;;-6.92;79.48;101024.56;4916025;29;20227;-63
2021/12/26 05:41:55;;;;;;;22.65;12.88;;;-6.50;99.90;;;-6.90;79.15;101016.59;4915636;29;20615;-62
2021/12/26 05:44:31;;;;;;;16.80;11.90;;;-6.50;99.90;;;-7.05;78.79;101023.59;4915631;29;20561;-63
2021/12/26 05:47:03;;;;;;;20.65;14.02;;;-6.50;99.90;;;-7.03;79.11;101021.72;4915684;29;20201;-64
2021/12/26 05:49:49;;;;;;;20.45;15.27;;;-6.50;99.90;;;-7.02;79.11;101012.91;4915555;29;20686;-62
2021/12/26 05:52:20;;;;;;;21.75;14.18;;;-6.50;99.90;;;-7.09;79.31;101014.19;4915661;29;20457;-63
2021/12/26 05:54:55;;;;;;;19.52;11.93;;;-6.50;99.90;;;-7.15;79.13;101017.16;4915479;29;20201;-63
2021/12/26 05:57:24;;;;;;;19.65;13.65;;;-6.60;99.90;;;-7.36;79.06;101018.38;4916621;29;20182;-63
2021/12/26 05:59:55;;;;;;;16.02;10.23;;;-6.70;99.90;;;-7.24;79.31;101020.31;4915643;29;20237;-62
2021/12/26 06:02:24;;;;;;;14.88;10.77;;;-6.80;99.90;;;-7.22;79.82;101015.81;4916685;29;20220;-62
2021/12/26 06:04:53;;;;;;;14.45;10.35;;;-6.70;99.90;;;-7.07;78.56;101028.94;4915528;29;20245;-63
2021/12/26 06:07:21;;;;;;;19.00;11.35;;;-6.70;99.90;;;-7.07;78.38;101030.75;4916791;29;20196;-63
2021/12/26 06:09:49;;;;;;;18.15;11.50;;;-6.70;99.90;;;-7.16;79.24;101015.44;4915459;29;20193;-64
2021/12/26 06:12:19;;;;;;;17.63;10.07;;;-6.70;99.90;;;-7.18;79.25;101009.44;4915348;29;20319;-64
2021/12/26 06:14:48;;;;;;;13.00;9.75;;;-6.70;99.90;;;-7.11;78.90;101009.00;4915605;29;20196;-60
2021/12/26 06:17:18;;;;;;;19.40;10.57;;;-6.70;99.90;;;-7.06;78.77;101008.72;4916342;29;20664;-62
2021/12/26 06:20:11;;;;;;;19.48;11.10;;;-6.70;99.90;;;-7.04;77.88;101022.66;4919899;29;20208;-59
2021/12/26 06:22:45;;;;;;;23.00;14.48;;;-6.70;99.90;;;-7.27;77.29;101012.59;4919708;29;20635;-63
2021/12/26 06:25:51;;;;;;;27.15;17.08;;;-6.70;99.90;;;-7.72;77.15;101010.72;4921174;29;20300;-63
2021/12/26 06:28:34;;;;;;;24.80;18.48;;;-7.10;99.90;;;-8.00;77.51;101011.38;4919966;29;20714;-64
2021/12/26 06:31:29;;;;;;;27.77;19.60;;;-7.40;99.90;;;-8.34;76.82;101016.72;4921826;29;20225;-63
2021/12/26 06:34:17;;;;;;;31.52;18.88;;;-7.70;99.90;;;-8.49;77.15;101018.34;4920965;29;20615;-64
2021/12/26 06:37:05;;;;;;;29.67;20.90;;;-7.90;99.90;;;-8.54;77.87;101015.13;4920263;29;20189;-63
2021/12/26 06:39:52;;;;;;;26.98;18.90;;;-8.00;99.90;;;-8.68;77.72;101023.69;4920316;29;20185;-63
2021/12/26 06:42:49;;;;;;;26.55;17.70;;;-8.10;99.90;;;-8.84;78.49;101022.75;4920389;29;20221;-62
2021/12/26 06:45:36;;;;;;;25.23;16.88;;;-8.20;99.90;;;-8.69;78.92;101024.59;4919841;29;20178;-64
2021/12/26 06:48:42;;;;;;;30.02;18.23;;;-8.20;99.90;;;-8.75;78.63;101024.91;4919799;29;20284;-62
2021/12/26 06:51:13;;;;;;;24.63;17.50;;;-8.20;99.90;;;-8.71;78.93;101023.00;4918579;29;20225;-62
2021/12/26 06:53:42;;;;;;;27.45;19.02;;;-8.20;99.90;;;-8.70;78.70;101020.28;4920193;29;20174;-63
2021/12/26 06:56:11;;;;;;;27.50;18.33;;;-8.30;99.90;;;-8.69;78.35;101010.63;4919664;29;20190;-63
2021/12/26 06:58:39;;;;;;;29.20;19.05;;;-8.30;99.90;;;-8.71;78.26;101018.56;4920131;29;20174;-64
2021/12/26 07:01:08;;;;;;;30.35;20.00;;;-8.30;99.90;;;-8.77;78.00;101024.16;4919581;29;20190;-63
2021/12/26 07:03:37;;;;;;;27.75;18.20;;;-8.30;99.90;;;-8.73;78.82;101024.84;4918408;29;20678;-61
2021/12/26 07:06:06;;;;;;;32.50;20.77;;;-8.30;99.90;;;-8.80;78.72;101024.28;4918767;29;20284;-63
2021/12/26 07:08:35;;;;;;;31.33;16.50;;;-8.30;99.90;;;-8.91;79.00;101026.63;4918842;29;20667;-64
2021/12/26 07:11:04;;;;;;;21.08;16.30;;;-8.40;99.90;;;-8.85;79.20;101034.16;4919908;29;20186;-62
2021/12/26 07:13:32;;;;;;;32.38;21.20;;;-8.40;99.90;;;-8.75;79.70;101024.06;4918322;29;20600;-63
2021/12/26 07:16:01;;;;;;;50.70;25.42;;;-8.30;99.90;;;-8.66;79.70;101029.69;4918151;29;20244;-63
2021/12/26 07:18:29;;;;;;;28.95;15.57;;;-8.30;99.90;;;-8.67;78.60;101025.41;4918223;29;20189;-58
2021/12/26 07:20:57;;;;;;;26.00;17.00;;;-8.20;99.90;;;-8.69;79.24;101031.63;4917979;29;20276;-66
2021/12/26 07:23:46;;;;;;;22.10;16.02;;;-8.20;99.90;;;-8.68;79.19;101031.56;4917974;29;20241;-62
2021/12/26 07:26:18;;;;;;;27.92;16.55;;;-8.20;99.90;;;-8.67;79.26;101037.66;4918077;29;20204;-64
2021/12/26 07:28:47;;;;;;;26.98;16.35;;;-8.20;99.90;;;-8.63;79.38;101040.03;4917743;29;20190;-63
2021/12/26 07:31:21;;;;;;;26.80;18.80;;;-8.20;99.90;;;-8.57;78.82;101033.66;4917632;29;20307;-62
2021/12/26 07:33:58;;;;;;;41.85;25.50;;;-8.20;99.90;;;-8.55;78.61;101040.50;4917810;29;20193;-63
2021/12/26 07:36:29;;;;;;;50.10;25.83;;;-8.10;99.90;;;-8.62;77.69;101044.38;4917666;29;20241;-62
2021/12/26 07:39:19;;;;;;;44.70;22.70;;;-8.20;99.90;;;-8.85;77.66;101042.88;4919450;29;20229;-63
2021/12/26 07:41:47;;;;;;;24.98;18.15;;;-8.30;99.90;;;-8.89;78.21;101048.34;4919429;29;20210;-62
2021/12/26 07:44:49;;;;;;;22.05;15.55;;;-8.30;99.90;;;-8.84;78.91;101044.56;4918228;29;20201;-61
2021/12/26 07:47:34;;;;;;;30.00;18.48;;;-8.40;99.90;;;-8.59;79.06;101054.72;4917979;29;20198;-60
2021/12/26 07:50:04;;;;;;;29.90;18.98;;;-8.20;99.90;;;-8.45;78.78;101061.88;4918451;29;20224;-64
2021/12/26 07:52:52;;;;;;;24.00;15.23;;;-8.00;99.90;;;-8.38;79.48;101053.63;4919684;29;20716;-63
2021/12/26 07:55:41;;;;;;;25.27;12.55;;;-7.90;99.90;;;-8.40;79.65;101063.34;4920053;29;20193;-64
2021/12/26 07:58:28;;;;;;;20.55;12.10;;;-7.90;99.90;;;-8.04;79.52;101063.22;4919336;29;20196;-63
2021/12/26 08:01:14;;;;;;;25.20;13.57;;;-7.70;99.90;;;-7.83;79.76;101055.94;4918682;29;20189;-64
2021/12/26 08:03:54;;;;;;;17.00;11.23;;;-7.50;99.90;;;-7.48;78.76;101057.53;4917212;29;20228;-63
2021/12/26 08:06:42;;;;;;;18.77;10.85;;;-7.30;99.90;;;-7.47;77.99;101063.66;4918596;29;20192;-63
2021/12/26 08:09:11;;;;;;;19.00;12.27;;;-7.10;99.90;;;-7.31;78.25;101058.41;4917445;29;20302;-62
2021/12/26 08:11:42;;;;;;;25.55;11.63;;;-7.10;99.90;;;-7.08;76.71;101050.94;4917100;29;20269;-62
2021/12/26 08:14:10;;;;;;;16.73;11.70;;;-6.90;99.90;;;-6.95;76.68;101066.84;4917143;29;20304;-65
2021/12/26 08:16:39;;;;;;;30.13;16.38;;;-6.80;99.90;;;-7.08;76.71;101071.97;4918847;29;20531;-63
2021/12/26 08:19:08;;;;;;;23.67;13.60;;;-6.70;99.90;;;-6.99;76.41;101075.00;4919772;29;20212;-63
2021/12/26 08:21:37;;;;;;;34.08;16.02;;;-6.70;99.90;;;-7.02;76.32;101066.34;4919579;29;20630;-61
2021/12/26 08:24:09;;;;;;;34.40;16.95;;;-6.70;99.90;;;-6.90;75.98;101070.06;4918520;29;20600;-63
2021/12/26 08:26:38;;;;;;;24.70;12.95;;;-6.60;99.90;;;-6.72;75.65;101068.16;4920069;29;20174;-64
2021/12/26 08:29:08;;;;;;;25.55;14.68;;;-6.60;99.90;;;-6.58;75.25;101072.66;4919537;29;20205;-64
2021/12/26 08:31:36;;;;;;;16.50;12.43;;;-6.40;99.90;;;-6.63;74.96;101068.47;4919032;29;20209;-62
2021/12/26 08:34:05;;;;;;;24.70;16.48;;;-6.40;99.90;;;-6.58;75.09;101067.41;4918593;29;20182;-63
2021/12/26 08:36:33;;;;;;;19.65;13.38;;;-6.30;99.90;;;-6.62;75.24;101075.44;4919165;29;20174;-61
2021/12/26 08:39:03;;;;;;;47.72;26.92;;;-6.30;99.90;;;-6.51;75.44;101082.72;4918443;29;20178;-62
2021/12/26 08:41:31;;;;;;;17.60;11.77;;;-6.20;99.90;;;-6.44;75.10;101080.59;4917990;29;20296;-63
2021/12/26 08:44:00;;;;;;;19.90;12.95;;;-6.20;99.90;;;-6.45;75.57;101082.38;4918029;29;20211;-61
2021/12/26 08:46:29;;;;;;;23.48;15.35;;;-6.10;99.90;;;-6.51;75.20;101081.88;4917747;29;20204;-60
2021/12/26 08:48:58;;;;;;;20.08;15.07;;;-6.10;99.90;;;-6.26;75.10;101079.50;4917760;29;20571;-64
2021/12/26 08:51:26;;;;;;;18.83;11.75;;;-6.00;99.90;;;-6.06;74.38;101073.06;4917732;29;20249;-64
2021/12/26 08:53:55;;;;;;;14.90;11.27;;;-5.90;99.90;;;-6.09;74.79;101068.81;4918612;29;20605;-63
2021/12/26 08:56:23;;;;;;;20.33;12.90;;;-5.90;99.90;;;-6.03;74.42;101078.97;4917868;29;20225;-64
2021/12/26 08:58:51;;;;;;;15.20;10.98;;;-5.80;99.90;;;-5.90;74.43;101074.66;4917588;29;20185;-55
2021/12/26 09:01:19;;;;;;;15.65;10.63;;;-5.70;99.90;;;-5.82;73.91;101082.94;4918075;29;20244;-63
2021/12/26 09:03:49;;;;;;;17.77;10.65;;;-5.60;99.90;;;-5.72;73.71;101076.16;4917616;29;20213;-64
2021/12/26 09:06:18;;;;;;;28.15;11.32;;;-5.50;99.90;;;-5.64;73.50;101075.69;4917520;29;20605;-64
2021/12/26 09:08:46;;;;;;;24.75;11.32;;;-5.50;99.90;;;-5.47;72.58;101074.66;4917674;29;20301;-63
2021/12/26 09:11:16;;;;;;;20.17;9.52;;;-5.30;99.90;;;-5.50;72.66;101077.47;4917335;29;20730;-65
2021/12/26 09:13:45;;;;;;;12.43;8.88;;;-5.30;99.90;;;-5.37;72.18;101073.09;4917268;29;20221;-61
2021/12/26 09:16:14;;;;;;;13.50;9.88;;;-5.20;99.90;;;-5.34;72.43;101078.19;4917809;29;20194;-63
2021/12/26 09:18:42;;;;;;;22.70;12.05;;;-5.10;99.90;;;-5.25;72.21;101074.97;4917524;29;20694;-61
2021/12/26 09:21:12;;;;;;;14.52;10.77;;;-5.10;99.90;;;-5.27;71.91;101075.06;4917541;29;20638;-62
2021/12/26 09:23:40;;;;;;;13.73;10.25;;;-5.00;99.90;;;-5.03;70.68;101077.94;4917391;29;20213;-63
2021/12/26 09:26:12;;;;;;;16.23;10.38;;;-4.90;99.90;;;-4.88;70.41;101081.38;4917726;29;20568;-64
2021/12/26 09:28:40;;;;;;;16.65;9.90;;;-4.80;99.90;;;-4.78;69.38;101086.91;4918768;29;20594;-63
2021/12/26 09:31:09;;;;;;;18.88;12.05;;;-4.70;99.90;;;-4.81;69.88;101085.34;4917949;29;20208;-64
2021/12/26 09:33:37;;;;;;;20.80;11.65;;;-4.60;99.90;;;-4.63;68.91;101089.41;4917744;29;20224;-62
2021/12/26 09:36:06;;;;;;;17.33;12.18;;;-4.50;99.90;;;-4.65;68.38;101093.09;4917219;29;20224;-61
2021/12/26 09:38:36;;;;;;;19.50;12.27;;;-4.50;99.90;;;-4.50;68.27;101092.06;4917086;29;20516;-63
2021/12/26 09:41:04;;;;;;;19.33;11.95;;;-4.40;99.90;;;-4.51;68.35;101083.34;4915953;29;20194;-64
2021/12/26 09:43:33;;;;;;;15.93;10.75;;;-4.30;99.90;;;-4.47;68.69;101076.03;4916722;29;20217;-63
2021/12/26 09:46:01;;;;;;;20.25;12.15;;;-4.30;99.90;;;-4.31;67.14;101087.28;4916730;29;20188;-62
2021/12/26 09:48:30;;;;;;;19.67;11.45;;;-4.20;99.90;;;-4.12;65.79;101082.47;4917091;29;20651;-63
2021/12/26 09:50:59;;;;;;;22.75;14.45;;;-4.00;99.90;;;-4.12;65.61;101078.97;4915699;29;20305;-64
2021/12/26 09:53:27;;;;;;;19.10;12.85;;;-3.90;99.90;;;-4.03;64.55;101073.91;4916771;29;20213;-63
2021/12/26 09:55:57;;;;;;;19.13;13.00;;;-3.90;99.90;;;-3.92;64.30;101072.31;4916961;29;20192;-63
2021/12/26 09:58:25;;;;;;;22.13;14.57;;;-3.80;99.90;;;-3.95;64.53;101076.84;4917360;29;20200;-65
2021/12/26 10:00:53;;;;;;;26.20;15.32;;;-3.80;99.90;;;-3.89;64.43;101066.81;4917458;29;20189;-63
2021/12/26 10:03:28;;;;;;;23.92;15.02;;;-3.70;99.90;;;-3.84;64.33;101070.00;4916715;29;20209;-65
2021/12/26 10:06:09;;;;;;;32.55;21.23;;;-3.70;99.90;;;-3.72;64.36;101071.75;4916622;29;20197;-63
2021/12/26 10:08:54;;;;;;;22.75;14.13;;;-3.60;99.90;;;-3.58;63.71;101066.34;4917089;29;20276;-65
2021/12/26 10:11:26;;;;;;;24.92;15.10;;;-3.50;99.90;;;-3.56;63.24;101062.66;4916430;29;20217;-62
2021/12/26 10:14:01;;;;;;;23.02;16.20;;;-3.40;99.90;;;-3.46;63.17;101059.38;4917987;29;20204;-62
2021/12/26 10:16:33;;;;;;;22.40;15.35;;;-3.30;99.90;;;-3.43;61.56;101062.63;4916757;29;20677;-62
2021/12/26 10:19:06;;;;;;;28.75;15.88;;;-3.30;99.90;;;-3.29;61.60;101051.91;4916704;29;20174;-63
2021/12/26 10:21:40;;;;;;;25.67;16.23;;;-3.20;99.90;;;-3.13;60.94;101054.31;4916782;29;20209;-65
2021/12/26 10:24:18;;;;;;;17.77;14.15;;;-3.10;99.90;;;-3.05;60.43;101051.97;4916732;29;20253;-63
2021/12/26 10:26:53;;;;;;;18.48;13.13;;;-2.90;99.90;;;-3.04;58.77;101050.13;4917204;29;20256;-62